Terminal Aerodrome Forecast
Issued by NWS

Home | Current Version | Previous Version | Text Only | Print | Product List | Glossary On
Versions: 1 2 3 4 5 6 7 8 9 10 11 12 13 14 15 16 17 18 19 20 21
000
FTUS44 KSJT 062300
TAFSOA
TAF
KSOA 062338Z 0700/0724 16015G22KT P6SM BKN250
     FM070300 16010KT P6SM BKN250
     FM070900 16009KT P6SM SCT015 BKN250
      TEMPO 0711/0715 BKN015
     FM071500 17011KT P6SM VCSH SCT030 BKN200
     FM072000 17012KT P6SM VCTS BKN040CB=

USA.gov is the U.S. government's official web portal to all federal, state and local government web resources and services.